sensor_id;sensor_type;location;lat;lon;timestamp;temperature;humidity
8214;DHT22;4148;47.974;7.824;2024-03-25T00:00:10;6.30;1.00
8214;DHT22;4148;47.974;7.824;2024-03-25T00:02:37;6.30;47.80
8214;DHT22;4148;47.974;7.824;2024-03-25T00:05:06;6.30;99.90
8214;DHT22;4148;47.974;7.824;2024-03-25T00:07:35;6.30;77.90
8214;DHT22;4148;47.974;7.824;2024-03-25T00:10:01;6.20;99.90
8214;DHT22;4148;47.974;7.824;2024-03-25T00:12:28;6.20;1.00
8214;DHT22;4148;47.974;7.824;2024-03-25T00:14:54;6.20;14.80
8214;DHT22;4148;47.974;7.824;2024-03-25T00:17:21;6.30;99.90
8214;DHT22;4148;47.974;7.824;2024-03-25T00:19:47;6.30;99.90
8214;DHT22;4148;47.974;7.824;2024-03-25T00:22:18;6.20;99.90
8214;DHT22;4148;47.974;7.824;2024-03-25T00:24:45;6.10;99.90
8214;DHT22;4148;47.974;7.824;2024-03-25T00:27:12;6.10;99.90
8214;DHT22;4148;47.974;7.824;2024-03-25T00:29:38;6.10;99.90
8214;DHT22;4148;47.974;7.824;2024-03-25T00:32:06;6.10;1.00
8214;DHT22;4148;47.974;7.824;2024-03-25T00:34:32;6.10;59.70
8214;DHT22;4148;47.974;7.824;2024-03-25T00:36:59;6.10;99.90
8214;DHT22;4148;47.974;7.824;2024-03-25T00:39:27;6.00;99.90
8214;DHT22;4148;47.974;7.824;2024-03-25T00:41:54;6.00;1.00
8214;DHT22;4148;47.974;7.824;2024-03-25T00:44:20;6.00;1.00
8214;DHT22;4148;47.974;7.824;2024-03-25T00:46:47;6.00;1.00
8214;DHT22;4148;47.974;7.824;2024-03-25T00:49:13;6.00;1.00
8214;DHT22;4148;47.974;7.824;2024-03-25T00:51:40;5.90;99.90
8214;DHT22;4148;47.974;7.824;2024-03-25T00:54:06;5.90;1.00
8214;DHT22;4148;47.974;7.824;2024-03-25T00:56:35;5.80;99.90
8214;DHT22;4148;47.974;7.824;2024-03-25T00:59:01;5.90;1.00
8214;DHT22;4148;47.974;7.824;2024-03-25T01:01:29;5.90;99.90
8214;DHT22;4148;47.974;7.824;2024-03-25T01:03:55;5.90;99.90
8214;DHT22;4148;47.974;7.824;2024-03-25T01:06:23;5.80;1.00
8214;DHT22;4148;47.974;7.824;2024-03-25T01:08:49;5.80;1.00
8214;DHT22;4148;47.974;7.824;2024-03-25T01:11:17;5.90;1.00
8214;DHT22;4148;47.974;7.824;2024-03-25T01:13:45;5.90;99.90
8214;DHT22;4148;47.974;7.824;2024-03-25T01:16:11;5.90;99.90
8214;DHT22;4148;47.974;7.824;2024-03-25T01:18:38;5.90;99.90
8214;DHT22;4148;47.974;7.824;2024-03-25T01:21:05;5.80;1.00
8214;DHT22;4148;47.974;7.824;2024-03-25T01:23:31;5.70;99.90
8214;DHT22;4148;47.974;7.824;2024-03-25T01:25:58;5.70;99.90
8214;DHT22;4148;47.974;7.824;2024-03-25T01:28:24;5.70;99.90
8214;DHT22;4148;47.974;7.824;2024-03-25T01:30:53;5.70;1.00
8214;DHT22;4148;47.974;7.824;2024-03-25T01:33:19;5.70;17.50
8214;DHT22;4148;47.974;7.824;2024-03-25T01:35:46;5.70;20.80
8214;DHT22;4148;47.974;7.824;2024-03-25T01:38:12;5.70;19.60
8214;DHT22;4148;47.974;7.824;2024-03-25T01:40:39;5.70;99.90
8214;DHT22;4148;47.974;7.824;2024-03-25T01:43:05;5.70;1.00
8214;DHT22;4148;47.974;7.824;2024-03-25T01:45:33;5.70;1.00
8214;DHT22;4148;47.974;7.824;2024-03-25T01:48:02;5.60;1.00
8214;DHT22;4148;47.974;7.824;2024-03-25T01:50:30;5.50;1.00
8214;DHT22;4148;47.974;7.824;2024-03-25T01:52:57;5.50;99.90
8214;DHT22;4148;47.974;7.824;2024-03-25T01:55:26;5.50;1.00
8214;DHT22;4148;47.974;7.824;2024-03-25T01:57:53;5.50;99.90
8214;DHT22;4148;47.974;7.824;2024-03-25T02:00:20;5.50;1.70
8214;DHT22;4148;47.974;7.824;2024-03-25T02:02:47;5.50;1.00
8214;DHT22;4148;47.974;7.824;2024-03-25T02:05:16;5.60;97.80
8214;DHT22;4148;47.974;7.824;2024-03-25T02:07:43;5.60;3.90
8214;DHT22;4148;47.974;7.824;2024-03-25T02:10:11;5.60;1.00
8214;DHT22;4148;47.974;7.824;2024-03-25T02:12:40;5.60;99.90
8214;DHT22;4148;47.974;7.824;2024-03-25T02:15:08;5.60;99.90
8214;DHT22;4148;47.974;7.824;2024-03-25T02:17:35;5.60;1.00
8214;DHT22;4148;47.974;7.824;2024-03-25T02:20:02;5.60;99.90
8214;DHT22;4148;47.974;7.824;2024-03-25T02:22:30;5.60;99.90
8214;DHT22;4148;47.974;7.824;2024-03-25T02:24:57;5.60;1.00
8214;DHT22;4148;47.974;7.824;2024-03-25T02:27:25;5.40;99.90
8214;DHT22;4148;47.974;7.824;2024-03-25T02:29:54;5.50;99.90
8214;DHT22;4148;47.974;7.824;2024-03-25T02:32:20;5.60;88.10
8214;DHT22;4148;47.974;7.824;2024-03-25T02:34:51;5.50;1.00
8214;DHT22;4148;47.974;7.824;2024-03-25T02:37:17;5.60;88.00
8214;DHT22;4148;47.974;7.824;2024-03-25T02:39:44;5.60;1.00
8214;DHT22;4148;47.974;7.824;2024-03-25T02:42:10;5.40;59.30
8214;DHT22;4148;47.974;7.824;2024-03-25T02:44:39;5.50;91.40
8214;DHT22;4148;47.974;7.824;2024-03-25T02:47:09;5.40;99.90
8214;DHT22;4148;47.974;7.824;2024-03-25T02:49:37;5.30;99.90
8214;DHT22;4148;47.974;7.824;2024-03-25T02:52:04;5.20;99.90
8214;DHT22;4148;47.974;7.824;2024-03-25T02:54:31;5.20;99.90
8214;DHT22;4148;47.974;7.824;2024-03-25T02:56:57;5.30;99.90
8214;DHT22;4148;47.974;7.824;2024-03-25T02:59:23;5.20;99.90
8214;DHT22;4148;47.974;7.824;2024-03-25T03:01:51;5.00;1.00
8214;DHT22;4148;47.974;7.824;2024-03-25T03:04:18;5.20;99.90
8214;DHT22;4148;47.974;7.824;2024-03-25T03:06:44;5.10;99.90
8214;DHT22;4148;47.974;7.824;2024-03-25T03:09:11;5.20;1.00
8214;DHT22;4148;47.974;7.824;2024-03-25T03:11:37;5.00;99.90
8214;DHT22;4148;47.974;7.824;2024-03-25T03:14:04;5.00;99.90
8214;DHT22;4148;47.974;7.824;2024-03-25T03:16:30;4.80;1.00
8214;DHT22;4148;47.974;7.824;2024-03-25T03:18:58;4.60;1.00
8214;DHT22;4148;47.974;7.824;2024-03-25T03:21:24;4.50;1.00
8214;DHT22;4148;47.974;7.824;2024-03-25T03:23:51;4.70;1.00
8214;DHT22;4148;47.974;7.824;2024-03-25T03:26:17;4.90;1.00
8214;DHT22;4148;47.974;7.824;2024-03-25T03:28:44;4.90;99.90
8214;DHT22;4148;47.974;7.824;2024-03-25T03:31:10;5.00;99.90
8214;DHT22;4148;47.974;7.824;2024-03-25T03:33:37;5.00;99.90
8214;DHT22;4148;47.974;7.824;2024-03-25T03:36:06;4.90;99.90
8214;DHT22;4148;47.974;7.824;2024-03-25T03:38:33;5.00;99.90
8214;DHT22;4148;47.974;7.824;2024-03-25T03:40:59;5.00;99.90
8214;DHT22;4148;47.974;7.824;2024-03-25T03:43:26;5.00;99.90
8214;DHT22;4148;47.974;7.824;2024-03-25T03:45:52;4.80;99.90
8214;DHT22;4148;47.974;7.824;2024-03-25T03:48:19;4.70;99.90
8214;DHT22;4148;47.974;7.824;2024-03-25T03:50:45;4.70;99.90
8214;DHT22;4148;47.974;7.824;2024-03-25T03:53:13;4.60;99.90
8214;DHT22;4148;47.974;7.824;2024-03-25T03:55:39;4.50;1.00
8214;DHT22;4148;47.974;7.824;2024-03-25T03:58:06;4.70;1.00
8214;DHT22;4148;47.974;7.824;2024-03-25T04:00:35;4.90;99.90
8214;DHT22;4148;47.974;7.824;2024-03-25T04:03:04;5.00;99.90
8214;DHT22;4148;47.974;7.824;2024-03-25T04:05:30;5.00;99.90
8214;DHT22;4148;47.974;7.824;2024-03-25T04:07:57;5.00;50.70
8214;DHT22;4148;47.974;7.824;2024-03-25T04:10:27;4.80;99.90
8214;DHT22;4148;47.974;7.824;2024-03-25T04:12:54;4.60;99.90
8214;DHT22;4148;47.974;7.824;2024-03-25T04:15:21;4.50;99.90
8214;DHT22;4148;47.974;7.824;2024-03-25T04:17:48;4.30;99.90
8214;DHT22;4148;47.974;7.824;2024-03-25T04:20:15;4.10;99.90
8214;DHT22;4148;47.974;7.824;2024-03-25T04:22:43;4.10;99.90
8214;DHT22;4148;47.974;7.824;2024-03-25T04:25:09;4.30;99.90
8214;DHT22;4148;47.974;7.824;2024-03-25T04:27:39;4.20;99.90
8214;DHT22;4148;47.974;7.824;2024-03-25T04:30:06;4.10;99.90
8214;DHT22;4148;47.974;7.824;2024-03-25T04:32:34;4.20;99.90
8214;DHT22;4148;47.974;7.824;2024-03-25T04:35:01;4.40;99.90
8214;DHT22;4148;47.974;7.824;2024-03-25T04:37:29;4.50;1.00
8214;DHT22;4148;47.974;7.824;2024-03-25T04:39:56;4.40;64.90
8214;DHT22;4148;47.974;7.824;2024-03-25T04:42:22;4.20;88.40
8214;DHT22;4148;47.974;7.824;2024-03-25T04:44:49;4.10;1.00
8214;DHT22;4148;47.974;7.824;2024-03-25T04:47:16;4.00;99.90
8214;DHT22;4148;47.974;7.824;2024-03-25T04:49:42;3.90;99.90
8214;DHT22;4148;47.974;7.824;2024-03-25T04:52:08;3.80;99.90
8214;DHT22;4148;47.974;7.824;2024-03-25T04:54:34;3.60;99.90
8214;DHT22;4148;47.974;7.824;2024-03-25T04:57:00;3.50;99.90
8214;DHT22;4148;47.974;7.824;2024-03-25T04:59:26;3.40;99.90
8214;DHT22;4148;47.974;7.824;2024-03-25T05:01:54;3.30;99.90
8214;DHT22;4148;47.974;7.824;2024-03-25T05:04:20;3.30;1.00
8214;DHT22;4148;47.974;7.824;2024-03-25T05:06:46;3.20;1.00
8214;DHT22;4148;47.974;7.824;2024-03-25T05:09:12;3.30;1.00
8214;DHT22;4148;47.974;7.824;2024-03-25T05:11:38;3.30;99.90
8214;DHT22;4148;47.974;7.824;2024-03-25T05:14:04;3.30;99.90
8214;DHT22;4148;47.974;7.824;2024-03-25T05:16:30;3.10;1.00
8214;DHT22;4148;47.974;7.824;2024-03-25T05:18:57;3.20;1.00
8214;DHT22;4148;47.974;7.824;2024-03-25T05:21:24;3.00;1.00
8214;DHT22;4148;47.974;7.824;2024-03-25T05:23:50;2.80;1.00
8214;DHT22;4148;47.974;7.824;2024-03-25T05:26:16;2.70;1.00
8214;DHT22;4148;47.974;7.824;2024-03-25T05:28:42;2.80;1.00
8214;DHT22;4148;47.974;7.824;2024-03-25T05:31:08;3.00;1.00
8214;DHT22;4148;47.974;7.824;2024-03-25T05:33:35;3.30;1.00
8214;DHT22;4148;47.974;7.824;2024-03-25T05:36:02;3.40;99.90
8214;DHT22;4148;47.974;7.824;2024-03-25T05:38:29;3.60;99.90
8214;DHT22;4148;47.974;7.824;2024-03-25T05:40:55;3.70;99.90
8214;DHT22;4148;47.974;7.824;2024-03-25T05:43:21;3.80;89.80
8214;DHT22;4148;47.974;7.824;2024-03-25T05:45:51;3.70;1.00
8214;DHT22;4148;47.974;7.824;2024-03-25T05:48:17;3.70;99.90
8214;DHT22;4148;47.974;7.824;2024-03-25T05:50:43;3.70;1.00
8214;DHT22;4148;47.974;7.824;2024-03-25T05:53:10;3.60;1.00
8214;DHT22;4148;47.974;7.824;2024-03-25T05:55:36;3.60;98.20
8214;DHT22;4148;47.974;7.824;2024-03-25T05:58:03;3.40;99.90
8214;DHT22;4148;47.974;7.824;2024-03-25T06:00:29;3.40;99.90
8214;DHT22;4148;47.974;7.824;2024-03-25T06:02:55;3.20;99.90
8214;DHT22;4148;47.974;7.824;2024-03-25T06:05:21;3.30;99.90
8214;DHT22;4148;47.974;7.824;2024-03-25T06:07:47;3.30;1.00
8214;DHT22;4148;47.974;7.824;2024-03-25T06:10:15;3.20;99.90
8214;DHT22;4148;47.974;7.824;2024-03-25T06:12:41;3.10;99.90
8214;DHT22;4148;47.974;7.824;2024-03-25T06:15:08;3.30;99.90
8214;DHT22;4148;47.974;7.824;2024-03-25T06:17:34;3.30;99.90
8214;DHT22;4148;47.974;7.824;2024-03-25T06:20:00;3.40;99.90
8214;DHT22;4148;47.974;7.824;2024-03-25T06:22:26;3.40;67.70
8214;DHT22;4148;47.974;7.824;2024-03-25T06:24:52;3.50;99.90
8214;DHT22;4148;47.974;7.824;2024-03-25T06:27:19;3.60;99.90
8214;DHT22;4148;47.974;7.824;2024-03-25T06:29:45;3.60;99.90
8214;DHT22;4148;47.974;7.824;2024-03-25T06:32:11;3.70;99.90
8214;DHT22;4148;47.974;7.824;2024-03-25T06:34:55;3.70;99.90
8214;DHT22;4148;47.974;7.824;2024-03-25T06:37:22;3.70;99.90
8214;DHT22;4148;47.974;7.824;2024-03-25T06:39:48;4.00;99.90
8214;DHT22;4148;47.974;7.824;2024-03-25T06:42:14;4.30;99.90
8214;DHT22;4148;47.974;7.824;2024-03-25T06:44:41;4.40;1.00
8214;DHT22;4148;47.974;7.824;2024-03-25T06:47:07;4.30;1.00
8214;DHT22;4148;47.974;7.824;2024-03-25T06:49:33;4.30;1.00
8214;DHT22;4148;47.974;7.824;2024-03-25T06:51:59;4.30;99.90
8214;DHT22;4148;47.974;7.824;2024-03-25T06:54:25;4.30;99.90
8214;DHT22;4148;47.974;7.824;2024-03-25T06:56:51;4.40;1.00
8214;DHT22;4148;47.974;7.824;2024-03-25T06:59:17;4.50;1.00
8214;DHT22;4148;47.974;7.824;2024-03-25T07:01:44;4.60;1.00
8214;DHT22;4148;47.974;7.824;2024-03-25T07:04:10;4.80;99.90
8214;DHT22;4148;47.974;7.824;2024-03-25T07:06:36;4.90;56.10
8214;DHT22;4148;47.974;7.824;2024-03-25T07:09:03;5.10;99.90
8214;DHT22;4148;47.974;7.824;2024-03-25T07:11:29;5.10;99.90
8214;DHT22;4148;47.974;7.824;2024-03-25T07:13:55;5.30;99.90
8214;DHT22;4148;47.974;7.824;2024-03-25T07:16:21;5.30;99.90
8214;DHT22;4148;47.974;7.824;2024-03-25T07:18:48;5.40;99.90
8214;DHT22;4148;47.974;7.824;2024-03-25T07:21:14;5.60;99.90
8214;DHT22;4148;47.974;7.824;2024-03-25T07:23:41;5.70;1.00
8214;DHT22;4148;47.974;7.824;2024-03-25T07:26:07;5.70;99.90
8214;DHT22;4148;47.974;7.824;2024-03-25T07:28:33;5.80;91.90
8214;DHT22;4148;47.974;7.824;2024-03-25T07:30:59;5.90;1.00
8214;DHT22;4148;47.974;7.824;2024-03-25T07:33:25;6.00;99.90
8214;DHT22;4148;47.974;7.824;2024-03-25T07:35:52;6.10;1.00
8214;DHT22;4148;47.974;7.824;2024-03-25T07:38:18;6.10;1.00
8214;DHT22;4148;47.974;7.824;2024-03-25T07:40:44;6.20;99.90
8214;DHT22;4148;47.974;7.824;2024-03-25T07:43:10;6.40;99.90
8214;DHT22;4148;47.974;7.824;2024-03-25T07:48:03;6.60;99.90
8214;DHT22;4148;47.974;7.824;2024-03-25T07:50:29;6.80;44.60
8214;DHT22;4148;47.974;7.824;2024-03-25T07:52:56;7.00;1.00
8214;DHT22;4148;47.974;7.824;2024-03-25T07:55:22;7.20;1.00
8214;DHT22;4148;47.974;7.824;2024-03-25T07:57:48;7.30;1.00
8214;DHT22;4148;47.974;7.824;2024-03-25T08:00:15;7.50;1.00
8214;DHT22;4148;47.974;7.824;2024-03-25T08:02:41;8.10;1.00
8214;DHT22;4148;47.974;7.824;2024-03-25T08:05:07;8.70;1.00
8214;DHT22;4148;47.974;7.824;2024-03-25T08:10:01;10.30;99.90
8214;DHT22;4148;47.974;7.824;2024-03-25T08:12:28;11.20;99.90
8214;DHT22;4148;47.974;7.824;2024-03-25T08:14:55;11.80;99.90
8214;DHT22;4148;47.974;7.824;2024-03-25T08:17:21;12.20;99.90
8214;DHT22;4148;47.974;7.824;2024-03-25T08:22:14;13.10;99.90
8214;DHT22;4148;47.974;7.824;2024-03-25T08:24:40;13.00;99.90
8214;DHT22;4148;47.974;7.824;2024-03-25T08:29:34;13.30;99.90
8214;DHT22;4148;47.974;7.824;2024-03-25T08:34:26;13.30;99.90
8214;DHT22;4148;47.974;7.824;2024-03-25T08:36:52;13.20;99.90
8214;DHT22;4148;47.974;7.824;2024-03-25T08:39:18;13.00;99.90
8214;DHT22;4148;47.974;7.824;2024-03-25T08:41:44;12.90;99.90
8214;DHT22;4148;47.974;7.824;2024-03-25T08:44:12;13.00;99.90
8214;DHT22;4148;47.974;7.824;2024-03-25T08:46:38;13.10;99.90
8214;DHT22;4148;47.974;7.824;2024-03-25T08:49:04;13.40;99.90
8214;DHT22;4148;47.974;7.824;2024-03-25T08:51:31;13.40;99.90
8214;DHT22;4148;47.974;7.824;2024-03-25T08:53:57;13.70;99.90
8214;DHT22;4148;47.974;7.824;2024-03-25T08:56:23;13.50;99.90
8214;DHT22;4148;47.974;7.824;2024-03-25T08:58:49;13.20;99.90
8214;DHT22;4148;47.974;7.824;2024-03-25T09:01:16;13.60;99.90
8214;DHT22;4148;47.974;7.824;2024-03-25T09:03:42;14.20;99.90
8214;DHT22;4148;47.974;7.824;2024-03-25T09:06:08;14.30;99.90
8214;DHT22;4148;47.974;7.824;2024-03-25T09:08:34;14.40;99.90
8214;DHT22;4148;47.974;7.824;2024-03-25T09:11:00;14.00;99.90
8214;DHT22;4148;47.974;7.824;2024-03-25T09:13:29;13.70;99.90
8214;DHT22;4148;47.974;7.824;2024-03-25T09:15:55;14.20;99.90
8214;DHT22;4148;47.974;7.824;2024-03-25T09:18:23;14.40;99.90
8214;DHT22;4148;47.974;7.824;2024-03-25T09:20:49;14.10;99.90
8214;DHT22;4148;47.974;7.824;2024-03-25T09:23:15;14.10;99.90
8214;DHT22;4148;47.974;7.824;2024-03-25T09:25:51;14.50;99.90
8214;DHT22;4148;47.974;7.824;2024-03-25T09:28:17;15.20;99.90
8214;DHT22;4148;47.974;7.824;2024-03-25T09:30:43;15.10;99.90
8214;DHT22;4148;47.974;7.824;2024-03-25T09:33:09;15.30;99.90
8214;DHT22;4148;47.974;7.824;2024-03-25T09:35:37;15.20;99.90
8214;DHT22;4148;47.974;7.824;2024-03-25T09:38:03;15.80;99.90
8214;DHT22;4148;47.974;7.824;2024-03-25T09:40:29;15.50;99.90
8214;DHT22;4148;47.974;7.824;2024-03-25T09:42:56;15.60;99.90
8214;DHT22;4148;47.974;7.824;2024-03-25T09:45:24;15.70;99.90
8214;DHT22;4148;47.974;7.824;2024-03-25T09:47:51;15.70;99.90
8214;DHT22;4148;47.974;7.824;2024-03-25T09:50:18;16.00;99.90
8214;DHT22;4148;47.974;7.824;2024-03-25T09:52:46;15.70;99.90
8214;DHT22;4148;47.974;7.824;2024-03-25T09:55:13;15.60;99.90
8214;DHT22;4148;47.974;7.824;2024-03-25T09:57:39;15.80;99.90
8214;DHT22;4148;47.974;7.824;2024-03-25T10:00:07;16.40;99.90
8214;DHT22;4148;47.974;7.824;2024-03-25T10:02:34;16.20;99.90
8214;DHT22;4148;47.974;7.824;2024-03-25T10:05:02;16.70;99.90
8214;DHT22;4148;47.974;7.824;2024-03-25T10:07:28;16.50;99.90
8214;DHT22;4148;47.974;7.824;2024-03-25T10:09:55;16.50;99.90
8214;DHT22;4148;47.974;7.824;2024-03-25T10:12:21;16.80;99.90
8214;DHT22;4148;47.974;7.824;2024-03-25T10:14:47;16.90;99.90
8214;DHT22;4148;47.974;7.824;2024-03-25T10:17:13;16.90;99.90
8214;DHT22;4148;47.974;7.824;2024-03-25T10:19:40;16.90;99.90
8214;DHT22;4148;47.974;7.824;2024-03-25T10:22:07;17.30;99.90
8214;DHT22;4148;47.974;7.824;2024-03-25T10:24:40;16.70;99.90
8214;DHT22;4148;47.974;7.824;2024-03-25T10:27:10;17.00;99.90
8214;DHT22;4148;47.974;7.824;2024-03-25T10:29:37;16.30;99.90
8214;DHT22;4148;47.974;7.824;2024-03-25T10:32:04;16.10;99.90
8214;DHT22;4148;47.974;7.824;2024-03-25T10:34:31;16.80;99.90
8214;DHT22;4148;47.974;7.824;2024-03-25T10:36:57;17.20;99.90
8214;DHT22;4148;47.974;7.824;2024-03-25T10:39:26;16.80;99.90
8214;DHT22;4148;47.974;7.824;2024-03-25T10:41:56;16.30;99.90
8214;DHT22;4148;47.974;7.824;2024-03-25T10:44:24;16.90;99.90
8214;DHT22;4148;47.974;7.824;2024-03-25T10:46:55;17.20;99.90
8214;DHT22;4148;47.974;7.824;2024-03-25T10:49:33;16.50;99.90
8214;DHT22;4148;47.974;7.824;2024-03-25T10:52:01;16.10;99.90
8214;DHT22;4148;47.974;7.824;2024-03-25T10:54:30;15.70;99.90
8214;DHT22;4148;47.974;7.824;2024-03-25T10:56:57;16.20;99.90
8214;DHT22;4148;47.974;7.824;2024-03-25T10:59:26;16.50;99.90
8214;DHT22;4148;47.974;7.824;2024-03-25T11:01:53;16.60;99.90
8214;DHT22;4148;47.974;7.824;2024-03-25T11:04:19;17.20;99.90
8214;DHT22;4148;47.974;7.824;2024-03-25T11:06:46;17.20;99.90
8214;DHT22;4148;47.974;7.824;2024-03-25T11:09:22;16.80;99.90
8214;DHT22;4148;47.974;7.824;2024-03-25T11:11:49;16.30;99.90
8214;DHT22;4148;47.974;7.824;2024-03-25T11:14:15;16.40;99.90
8214;DHT22;4148;47.974;7.824;2024-03-25T11:16:43;16.20;99.90
8214;DHT22;4148;47.974;7.824;2024-03-25T11:19:11;16.10;99.90
8214;DHT22;4148;47.974;7.824;2024-03-25T11:21:37;16.20;99.90
8214;DHT22;4148;47.974;7.824;2024-03-25T11:24:06;16.20;99.90
8214;DHT22;4148;47.974;7.824;2024-03-25T11:26:32;16.50;99.90
8214;DHT22;4148;47.974;7.824;2024-03-25T11:28:58;16.50;99.90
8214;DHT22;4148;47.974;7.824;2024-03-25T11:31:25;16.20;99.90
8214;DHT22;4148;47.974;7.824;2024-03-25T11:33:53;16.50;99.90
8214;DHT22;4148;47.974;7.824;2024-03-25T11:36:20;16.70;99.90
8214;DHT22;4148;47.974;7.824;2024-03-25T11:38:57;17.10;99.90
8214;DHT22;4148;47.974;7.824;2024-03-25T11:41:24;17.50;99.90
8214;DHT22;4148;47.974;7.824;2024-03-25T11:43:50;17.30;99.90
8214;DHT22;4148;47.974;7.824;2024-03-25T11:46:18;17.10;99.90
8214;DHT22;4148;47.974;7.824;2024-03-25T11:48:44;17.30;99.90
8214;DHT22;4148;47.974;7.824;2024-03-25T11:51:16;17.30;99.90
8214;DHT22;4148;47.974;7.824;2024-03-25T11:53:42;17.50;99.90
8214;DHT22;4148;47.974;7.824;2024-03-25T11:56:10;17.90;99.90
8214;DHT22;4148;47.974;7.824;2024-03-25T11:58:36;18.00;99.90
8214;DHT22;4148;47.974;7.824;2024-03-25T12:01:03;17.40;99.90
8214;DHT22;4148;47.974;7.824;2024-03-25T12:03:29;17.10;99.90
8214;DHT22;4148;47.974;7.824;2024-03-25T12:05:55;16.10;99.90
8214;DHT22;4148;47.974;7.824;2024-03-25T12:08:23;15.80;99.90
8214;DHT22;4148;47.974;7.824;2024-03-25T12:10:50;15.50;99.90
8214;DHT22;4148;47.974;7.824;2024-03-25T12:13:34;15.30;99.90
8214;DHT22;4148;47.974;7.824;2024-03-25T12:16:00;15.40;99.90
8214;DHT22;4148;47.974;7.824;2024-03-25T12:18:26;15.20;99.90
8214;DHT22;4148;47.974;7.824;2024-03-25T12:20:52;15.30;99.90
8214;DHT22;4148;47.974;7.824;2024-03-25T12:23:18;15.40;99.90
8214;DHT22;4148;47.974;7.824;2024-03-25T12:25:49;15.60;99.90
8214;DHT22;4148;47.974;7.824;2024-03-25T12:28:15;15.30;99.90
8214;DHT22;4148;47.974;7.824;2024-03-25T12:30:50;15.10;99.90
8214;DHT22;4148;47.974;7.824;2024-03-25T12:33:16;15.00;99.90
8214;DHT22;4148;47.974;7.824;2024-03-25T12:35:45;15.10;99.90
8214;DHT22;4148;47.974;7.824;2024-03-25T12:38:22;15.10;99.90
8214;DHT22;4148;47.974;7.824;2024-03-25T12:40:49;15.00;99.90
8214;DHT22;4148;47.974;7.824;2024-03-25T12:43:15;15.10;99.90
8214;DHT22;4148;47.974;7.824;2024-03-25T12:45:42;14.80;99.90
8214;DHT22;4148;47.974;7.824;2024-03-25T12:48:08;14.70;99.90
8214;DHT22;4148;47.974;7.824;2024-03-25T12:50:34;14.60;99.90
8214;DHT22;4148;47.974;7.824;2024-03-25T12:53:00;14.70;99.90
8214;DHT22;4148;47.974;7.824;2024-03-25T12:55:26;14.70;99.90
8214;DHT22;4148;47.974;7.824;2024-03-25T12:57:54;14.50;99.90
8214;DHT22;4148;47.974;7.824;2024-03-25T13:00:20;14.40;99.90
8214;DHT22;4148;47.974;7.824;2024-03-25T13:02:46;14.50;99.90
8214;DHT22;4148;47.974;7.824;2024-03-25T13:05:12;14.40;99.90
8214;DHT22;4148;47.974;7.824;2024-03-25T13:07:38;14.20;99.90
8214;DHT22;4148;47.974;7.824;2024-03-25T13:10:05;14.20;99.90
8214;DHT22;4148;47.974;7.824;2024-03-25T13:12:31;14.10;99.90
8214;DHT22;4148;47.974;7.824;2024-03-25T13:14:59;14.00;99.90
8214;DHT22;4148;47.974;7.824;2024-03-25T13:17:25;14.00;99.90
8214;DHT22;4148;47.974;7.824;2024-03-25T13:19:51;13.80;99.90
8214;DHT22;4148;47.974;7.824;2024-03-25T13:22:17;13.80;99.90
8214;DHT22;4148;47.974;7.824;2024-03-25T13:24:43;13.80;99.90
8214;DHT22;4148;47.974;7.824;2024-03-25T13:27:09;14.00;99.90
8214;DHT22;4148;47.974;7.824;2024-03-25T13:29:35;14.00;99.90
8214;DHT22;4148;47.974;7.824;2024-03-25T13:32:03;13.70;99.90
8214;DHT22;4148;47.974;7.824;2024-03-25T13:34:29;13.80;99.90
8214;DHT22;4148;47.974;7.824;2024-03-25T13:36:55;13.70;99.90
8214;DHT22;4148;47.974;7.824;2024-03-25T13:39:21;13.80;99.90
8214;DHT22;4148;47.974;7.824;2024-03-25T13:41:47;13.80;99.90
8214;DHT22;4148;47.974;7.824;2024-03-25T13:44:13;13.90;99.90
8214;DHT22;4148;47.974;7.824;2024-03-25T13:46:40;14.00;99.90
8214;DHT22;4148;47.974;7.824;2024-03-25T13:49:07;14.10;99.90
8214;DHT22;4148;47.974;7.824;2024-03-25T13:51:33;14.10;99.90
8214;DHT22;4148;47.974;7.824;2024-03-25T13:53:59;14.10;99.90
8214;DHT22;4148;47.974;7.824;2024-03-25T13:56:25;14.10;99.90
8214;DHT22;4148;47.974;7.824;2024-03-25T13:58:51;14.10;99.90
8214;DHT22;4148;47.974;7.824;2024-03-25T14:01:17;14.00;99.90
8214;DHT22;4148;47.974;7.824;2024-03-25T14:03:43;14.00;99.90
8214;DHT22;4148;47.974;7.824;2024-03-25T14:06:10;14.10;99.90
8214;DHT22;4148;47.974;7.824;2024-03-25T14:08:36;14.10;99.90
8214;DHT22;4148;47.974;7.824;2024-03-25T14:11:03;14.10;99.90
8214;DHT22;4148;47.974;7.824;2024-03-25T14:13:29;14.10;99.90
8214;DHT22;4148;47.974;7.824;2024-03-25T14:15:55;14.10;99.90
8214;DHT22;4148;47.974;7.824;2024-03-25T14:18:21;14.10;99.90
8214;DHT22;4148;47.974;7.824;2024-03-25T14:20:47;14.20;99.90
8214;DHT22;4148;47.974;7.824;2024-03-25T14:23:14;14.10;99.90
8214;DHT22;4148;47.974;7.824;2024-03-25T14:25:40;14.10;99.90
8214;DHT22;4148;47.974;7.824;2024-03-25T14:28:06;14.00;99.90
8214;DHT22;4148;47.974;7.824;2024-03-25T14:30:32;14.00;99.90
8214;DHT22;4148;47.974;7.824;2024-03-25T14:32:58;14.00;99.90
8214;DHT22;4148;47.974;7.824;2024-03-25T14:35:25;14.00;99.90
8214;DHT22;4148;47.974;7.824;2024-03-25T14:37:51;14.00;99.90
8214;DHT22;4148;47.974;7.824;2024-03-25T14:40:18;14.00;99.90
8214;DHT22;4148;47.974;7.824;2024-03-25T14:42:44;14.00;99.90
8214;DHT22;4148;47.974;7.824;2024-03-25T14:45:10;14.00;99.90
8214;DHT22;4148;47.974;7.824;2024-03-25T14:47:36;14.00;99.90
8214;DHT22;4148;47.974;7.824;2024-03-25T14:50:03;14.00;99.90
8214;DHT22;4148;47.974;7.824;2024-03-25T14:52:29;14.00;99.90
8214;DHT22;4148;47.974;7.824;2024-03-25T14:54:55;14.10;99.90
8214;DHT22;4148;47.974;7.824;2024-03-25T14:57:23;14.20;99.90
8214;DHT22;4148;47.974;7.824;2024-03-25T14:59:49;14.20;99.90
8214;DHT22;4148;47.974;7.824;2024-03-25T15:02:15;14.20;99.90
8214;DHT22;4148;47.974;7.824;2024-03-25T15:04:43;14.10;99.90
8214;DHT22;4148;47.974;7.824;2024-03-25T15:07:09;14.00;99.90
8214;DHT22;4148;47.974;7.824;2024-03-25T15:09:35;14.00;99.90
8214;DHT22;4148;47.974;7.824;2024-03-25T15:12:02;14.10;99.90
8214;DHT22;4148;47.974;7.824;2024-03-25T15:14:29;14.10;99.90
8214;DHT22;4148;47.974;7.824;2024-03-25T15:16:55;14.10;99.90
8214;DHT22;4148;47.974;7.824;2024-03-25T15:19:21;14.10;99.90
8214;DHT22;4148;47.974;7.824;2024-03-25T15:21:47;14.10;99.90
8214;DHT22;4148;47.974;7.824;2024-03-25T15:24:13;14.20;99.90
8214;DHT22;4148;47.974;7.824;2024-03-25T15:26:39;14.20;99.90
8214;DHT22;4148;47.974;7.824;2024-03-25T15:29:06;14.20;99.90
8214;DHT22;4148;47.974;7.824;2024-03-25T15:31:33;14.20;99.90
8214;DHT22;4148;47.974;7.824;2024-03-25T15:33:59;14.20;99.90
8214;DHT22;4148;47.974;7.824;2024-03-25T15:36:25;14.20;99.90
8214;DHT22;4148;47.974;7.824;2024-03-25T15:38:52;14.20;99.90
8214;DHT22;4148;47.974;7.824;2024-03-25T15:41:18;14.20;99.90
8214;DHT22;4148;47.974;7.824;2024-03-25T15:43:44;14.20;99.90
8214;DHT22;4148;47.974;7.824;2024-03-25T15:46:10;14.20;99.90
8214;DHT22;4148;47.974;7.824;2024-03-25T15:48:38;14.20;99.90
8214;DHT22;4148;47.974;7.824;2024-03-25T15:51:04;14.10;99.90
8214;DHT22;4148;47.974;7.824;2024-03-25T15:53:30;14.10;99.90
8214;DHT22;4148;47.974;7.824;2024-03-25T15:55:56;14.10;99.90
8214;DHT22;4148;47.974;7.824;2024-03-25T15:58:22;14.10;99.90
8214;DHT22;4148;47.974;7.824;2024-03-25T16:00:48;14.10;99.90
8214;DHT22;4148;47.974;7.824;2024-03-25T16:03:14;14.00;99.90
8214;DHT22;4148;47.974;7.824;2024-03-25T16:05:41;14.00;99.90
8214;DHT22;4148;47.974;7.824;2024-03-25T16:08:07;14.00;99.90
8214;DHT22;4148;47.974;7.824;2024-03-25T16:10:34;14.00;99.90
8214;DHT22;4148;47.974;7.824;2024-03-25T16:13:02;14.00;99.90
8214;DHT22;4148;47.974;7.824;2024-03-25T16:15:28;14.10;99.90
8214;DHT22;4148;47.974;7.824;2024-03-25T16:17:54;14.00;99.90
8214;DHT22;4148;47.974;7.824;2024-03-25T16:20:20;14.00;99.90